sensor_id;sensor_type;location;lat;lon;timestamp;P1;durP1;ratioP1;P2;durP2;ratioP2
19842;SDS011;10082;51.038;6.992;2023-12-29T00:01:58;3.25;;;1.10;;
19842;SDS011;10082;51.038;6.992;2023-12-29T00:04:25;3.60;;;1.20;;
19842;SDS011;10082;51.038;6.992;2023-12-29T00:06:54;3.03;;;1.30;;
19842;SDS011;10082;51.038;6.992;2023-12-29T00:09:22;3.92;;;1.50;;
19842;SDS011;10082;51.038;6.992;2023-12-29T00:11:49;2.13;;;1.40;;
19842;SDS011;10082;51.038;6.992;2023-12-29T00:14:16;2.28;;;1.33;;
19842;SDS011;10082;51.038;6.992;2023-12-29T00:16:43;3.00;;;1.48;;
19842;SDS011;10082;51.038;6.992;2023-12-29T00:19:11;2.00;;;1.20;;
19842;SDS011;10082;51.038;6.992;2023-12-29T00:21:40;2.25;;;1.17;;
19842;SDS011;10082;51.038;6.992;2023-12-29T00:24:09;2.35;;;1.13;;
19842;SDS011;10082;51.038;6.992;2023-12-29T00:26:36;3.55;;;1.50;;
19842;SDS011;10082;51.038;6.992;2023-12-29T00:29:03;2.38;;;1.30;;
19842;SDS011;10082;51.038;6.992;2023-12-29T00:31:31;2.55;;;1.38;;
19842;SDS011;10082;51.038;6.992;2023-12-29T00:33:58;3.70;;;1.50;;
19842;SDS011;10082;51.038;6.992;2023-12-29T00:36:25;2.28;;;1.55;;
19842;SDS011;10082;51.038;6.992;2023-12-29T00:38:52;2.42;;;1.38;;
19842;SDS011;10082;51.038;6.992;2023-12-29T00:41:20;2.65;;;1.30;;
19842;SDS011;10082;51.038;6.992;2023-12-29T00:43:47;4.78;;;1.50;;
19842;SDS011;10082;51.038;6.992;2023-12-29T00:46:14;3.45;;;1.48;;
19842;SDS011;10082;51.038;6.992;2023-12-29T00:48:42;3.38;;;1.73;;
19842;SDS011;10082;51.038;6.992;2023-12-29T00:51:09;2.90;;;1.50;;
19842;SDS011;10082;51.038;6.992;2023-12-29T00:53:35;2.67;;;1.20;;
19842;SDS011;10082;51.038;6.992;2023-12-29T00:56:02;5.65;;;1.52;;
19842;SDS011;10082;51.038;6.992;2023-12-29T00:58:37;4.00;;;1.30;;
19842;SDS011;10082;51.038;6.992;2023-12-29T01:01:05;2.72;;;1.30;;
19842;SDS011;10082;51.038;6.992;2023-12-29T01:03:33;3.90;;;1.50;;
19842;SDS011;10082;51.038;6.992;2023-12-29T01:06:00;4.10;;;1.85;;
19842;SDS011;10082;51.038;6.992;2023-12-29T01:08:27;2.72;;;1.33;;
19842;SDS011;10082;51.038;6.992;2023-12-29T01:10:55;4.63;;;1.55;;
19842;SDS011;10082;51.038;6.992;2023-12-29T01:13:23;4.07;;;1.70;;
19842;SDS011;10082;51.038;6.992;2023-12-29T01:15:51;5.90;;;1.90;;
19842;SDS011;10082;51.038;6.992;2023-12-29T01:18:18;5.93;;;2.15;;
19842;SDS011;10082;51.038;6.992;2023-12-29T01:20:45;4.32;;;2.15;;
19842;SDS011;10082;51.038;6.992;2023-12-29T01:23:12;5.75;;;1.75;;
19842;SDS011;10082;51.038;6.992;2023-12-29T01:25:39;6.00;;;1.80;;
19842;SDS011;10082;51.038;6.992;2023-12-29T01:28:06;3.45;;;1.65;;
19842;SDS011;10082;51.038;6.992;2023-12-29T01:30:32;8.30;;;2.22;;
19842;SDS011;10082;51.038;6.992;2023-12-29T01:33:01;5.78;;;2.03;;
19842;SDS011;10082;51.038;6.992;2023-12-29T01:35:29;7.90;;;2.22;;
19842;SDS011;10082;51.038;6.992;2023-12-29T01:37:56;6.65;;;2.10;;
19842;SDS011;10082;51.038;6.992;2023-12-29T01:40:23;4.45;;;1.77;;
19842;SDS011;10082;51.038;6.992;2023-12-29T01:42:50;4.65;;;2.00;;
19842;SDS011;10082;51.038;6.992;2023-12-29T01:45:20;5.85;;;2.03;;
19842;SDS011;10082;51.038;6.992;2023-12-29T01:47:48;7.10;;;2.22;;
19842;SDS011;10082;51.038;6.992;2023-12-29T01:50:18;5.75;;;2.17;;
19842;SDS011;10082;51.038;6.992;2023-12-29T01:52:47;8.57;;;2.35;;
19842;SDS011;10082;51.038;6.992;2023-12-29T01:55:17;4.95;;;1.80;;
19842;SDS011;10082;51.038;6.992;2023-12-29T01:57:48;7.10;;;2.30;;
19842;SDS011;10082;51.038;6.992;2023-12-29T02:00:15;4.55;;;1.77;;
19842;SDS011;10082;51.038;6.992;2023-12-29T02:02:43;3.17;;;1.67;;
19842;SDS011;10082;51.038;6.992;2023-12-29T02:05:11;4.53;;;1.80;;
19842;SDS011;10082;51.038;6.992;2023-12-29T02:07:42;3.83;;;1.80;;
19842;SDS011;10082;51.038;6.992;2023-12-29T02:10:10;3.40;;;1.48;;
19842;SDS011;10082;51.038;6.992;2023-12-29T02:12:41;4.32;;;1.83;;
19842;SDS011;10082;51.038;6.992;2023-12-29T02:15:08;3.83;;;1.90;;
19842;SDS011;10082;51.038;6.992;2023-12-29T02:17:38;6.05;;;2.00;;
19842;SDS011;10082;51.038;6.992;2023-12-29T02:20:08;4.13;;;1.67;;
19842;SDS011;10082;51.038;6.992;2023-12-29T02:22:36;4.22;;;1.60;;
19842;SDS011;10082;51.038;6.992;2023-12-29T02:25:05;3.03;;;1.45;;
19842;SDS011;10082;51.038;6.992;2023-12-29T02:27:34;6.45;;;1.65;;
19842;SDS011;10082;51.038;6.992;2023-12-29T02:30:11;4.35;;;1.80;;
19842;SDS011;10082;51.038;6.992;2023-12-29T02:32:45;5.53;;;1.27;;
19842;SDS011;10082;51.038;6.992;2023-12-29T02:35:15;2.88;;;1.55;;
19842;SDS011;10082;51.038;6.992;2023-12-29T02:37:47;2.85;;;1.83;;
19842;SDS011;10082;51.038;6.992;2023-12-29T02:40:17;4.88;;;1.63;;
19842;SDS011;10082;51.038;6.992;2023-12-29T02:42:45;4.38;;;1.60;;
19842;SDS011;10082;51.038;6.992;2023-12-29T02:45:13;4.20;;;1.63;;
19842;SDS011;10082;51.038;6.992;2023-12-29T02:47:41;4.30;;;1.33;;
19842;SDS011;10082;51.038;6.992;2023-12-29T02:50:08;5.65;;;1.50;;
19842;SDS011;10082;51.038;6.992;2023-12-29T02:52:35;2.58;;;1.60;;
19842;SDS011;10082;51.038;6.992;2023-12-29T02:55:03;3.92;;;1.40;;
19842;SDS011;10082;51.038;6.992;2023-12-29T02:57:32;4.88;;;1.40;;
19842;SDS011;10082;51.038;6.992;2023-12-29T03:00:00;6.50;;;1.88;;
19842;SDS011;10082;51.038;6.992;2023-12-29T03:02:29;5.68;;;1.63;;
19842;SDS011;10082;51.038;6.992;2023-12-29T03:04:56;4.65;;;1.42;;
19842;SDS011;10082;51.038;6.992;2023-12-29T03:07:23;6.43;;;1.80;;
19842;SDS011;10082;51.038;6.992;2023-12-29T03:09:49;3.10;;;1.10;;
19842;SDS011;10082;51.038;6.992;2023-12-29T03:12:17;4.80;;;1.50;;
19842;SDS011;10082;51.038;6.992;2023-12-29T03:14:49;6.55;;;1.63;;
19842;SDS011;10082;51.038;6.992;2023-12-29T03:17:16;4.18;;;1.55;;
19842;SDS011;10082;51.038;6.992;2023-12-29T03:19:43;5.25;;;1.85;;
19842;SDS011;10082;51.038;6.992;2023-12-29T03:22:10;4.75;;;1.58;;
19842;SDS011;10082;51.038;6.992;2023-12-29T03:24:39;1.83;;;1.20;;
19842;SDS011;10082;51.038;6.992;2023-12-29T03:27:07;4.35;;;1.33;;
19842;SDS011;10082;51.038;6.992;2023-12-29T03:29:34;4.85;;;1.33;;
19842;SDS011;10082;51.038;6.992;2023-12-29T03:32:03;3.65;;;1.50;;
19842;SDS011;10082;51.038;6.992;2023-12-29T03:34:32;5.80;;;1.40;;
19842;SDS011;10082;51.038;6.992;2023-12-29T03:37:02;5.00;;;1.38;;
19842;SDS011;10082;51.038;6.992;2023-12-29T03:39:29;4.35;;;1.70;;
19842;SDS011;10082;51.038;6.992;2023-12-29T03:41:57;3.55;;;1.15;;
19842;SDS011;10082;51.038;6.992;2023-12-29T03:44:24;4.65;;;1.58;;
19842;SDS011;10082;51.038;6.992;2023-12-29T03:46:51;5.57;;;1.67;;
19842;SDS011;10082;51.038;6.992;2023-12-29T03:49:19;4.72;;;1.38;;
19842;SDS011;10082;51.038;6.992;2023-12-29T03:51:46;5.68;;;1.35;;
19842;SDS011;10082;51.038;6.992;2023-12-29T03:54:14;4.03;;;1.45;;
19842;SDS011;10082;51.038;6.992;2023-12-29T03:56:42;5.13;;;1.45;;
19842;SDS011;10082;51.038;6.992;2023-12-29T03:59:09;2.95;;;1.30;;
19842;SDS011;10082;51.038;6.992;2023-12-29T04:01:36;7.47;;;1.52;;
19842;SDS011;10082;51.038;6.992;2023-12-29T04:04:03;5.95;;;1.50;;
19842;SDS011;10082;51.038;6.992;2023-12-29T04:06:31;4.90;;;1.42;;
19842;SDS011;10082;51.038;6.992;2023-12-29T04:08:58;2.70;;;1.23;;
19842;SDS011;10082;51.038;6.992;2023-12-29T04:11:25;2.95;;;1.27;;
19842;SDS011;10082;51.038;6.992;2023-12-29T04:13:54;5.28;;;1.48;;
19842;SDS011;10082;51.038;6.992;2023-12-29T04:16:21;2.95;;;1.25;;
19842;SDS011;10082;51.038;6.992;2023-12-29T04:18:48;1.85;;;1.17;;
19842;SDS011;10082;51.038;6.992;2023-12-29T04:24:01;6.45;;;1.58;;
19842;SDS011;10082;51.038;6.992;2023-12-29T04:26:28;4.47;;;1.35;;
19842;SDS011;10082;51.038;6.992;2023-12-29T04:28:55;5.65;;;1.45;;
19842;SDS011;10082;51.038;6.992;2023-12-29T04:31:22;4.25;;;1.30;;
19842;SDS011;10082;51.038;6.992;2023-12-29T04:33:49;4.10;;;1.63;;
19842;SDS011;10082;51.038;6.992;2023-12-29T04:36:16;3.63;;;1.40;;
19842;SDS011;10082;51.038;6.992;2023-12-29T04:38:44;5.40;;;1.58;;
19842;SDS011;10082;51.038;6.992;2023-12-29T04:41:12;4.40;;;1.50;;
19842;SDS011;10082;51.038;6.992;2023-12-29T04:43:41;4.05;;;1.40;;
19842;SDS011;10082;51.038;6.992;2023-12-29T04:46:07;5.25;;;1.45;;
19842;SDS011;10082;51.038;6.992;2023-12-29T04:48:34;4.25;;;1.60;;
19842;SDS011;10082;51.038;6.992;2023-12-29T04:51:01;6.25;;;1.58;;
19842;SDS011;10082;51.038;6.992;2023-12-29T04:53:28;5.88;;;1.50;;
19842;SDS011;10082;51.038;6.992;2023-12-29T04:55:55;3.70;;;1.40;;
19842;SDS011;10082;51.038;6.992;2023-12-29T04:58:24;6.85;;;1.67;;
19842;SDS011;10082;51.038;6.992;2023-12-29T05:00:51;5.15;;;1.40;;
19842;SDS011;10082;51.038;6.992;2023-12-29T05:03:18;3.80;;;1.63;;
19842;SDS011;10082;51.038;6.992;2023-12-29T05:05:44;3.88;;;1.60;;
19842;SDS011;10082;51.038;6.992;2023-12-29T05:08:11;5.53;;;1.45;;
19842;SDS011;10082;51.038;6.992;2023-12-29T05:10:39;2.90;;;1.30;;
19842;SDS011;10082;51.038;6.992;2023-12-29T05:13:06;2.63;;;1.00;;
19842;SDS011;10082;51.038;6.992;2023-12-29T05:15:36;4.57;;;1.40;;
19842;SDS011;10082;51.038;6.992;2023-12-29T05:18:03;4.60;;;1.70;;
19842;SDS011;10082;51.038;6.992;2023-12-29T05:20:30;4.60;;;1.10;;
19842;SDS011;10082;51.038;6.992;2023-12-29T05:22:57;5.53;;;1.30;;
19842;SDS011;10082;51.038;6.992;2023-12-29T05:25:24;3.65;;;1.50;;
19842;SDS011;10082;51.038;6.992;2023-12-29T05:27:51;4.50;;;1.30;;
19842;SDS011;10082;51.038;6.992;2023-12-29T05:30:18;3.20;;;1.60;;
19842;SDS011;10082;51.038;6.992;2023-12-29T05:32:47;5.78;;;1.30;;
19842;SDS011;10082;51.038;6.992;2023-12-29T05:35:14;5.53;;;1.60;;
19842;SDS011;10082;51.038;6.992;2023-12-29T05:37:41;5.85;;;1.40;;
19842;SDS011;10082;51.038;6.992;2023-12-29T05:40:08;3.80;;;1.20;;
19842;SDS011;10082;51.038;6.992;2023-12-29T05:42:35;3.92;;;1.27;;
19842;SDS011;10082;51.038;6.992;2023-12-29T05:45:03;5.20;;;1.70;;
19842;SDS011;10082;51.038;6.992;2023-12-29T05:47:30;4.93;;;1.40;;
19842;SDS011;10082;51.038;6.992;2023-12-29T05:50:02;3.22;;;1.10;;
19842;SDS011;10082;51.038;6.992;2023-12-29T05:52:30;4.88;;;1.40;;
19842;SDS011;10082;51.038;6.992;2023-12-29T05:54:57;5.03;;;2.00;;
19842;SDS011;10082;51.038;6.992;2023-12-29T05:57:24;14.07;;;10.55;;
19842;SDS011;10082;51.038;6.992;2023-12-29T05:59:51;3.22;;;2.08;;
19842;SDS011;10082;51.038;6.992;2023-12-29T06:02:18;3.35;;;1.20;;
19842;SDS011;10082;51.038;6.992;2023-12-29T06:04:45;3.78;;;1.38;;
19842;SDS011;10082;51.038;6.992;2023-12-29T06:07:14;5.53;;;1.40;;
19842;SDS011;10082;51.038;6.992;2023-12-29T06:09:41;3.28;;;1.50;;
19842;SDS011;10082;51.038;6.992;2023-12-29T06:12:08;3.50;;;1.30;;
19842;SDS011;10082;51.038;6.992;2023-12-29T06:14:36;4.65;;;1.40;;
19842;SDS011;10082;51.038;6.992;2023-12-29T06:17:03;2.92;;;1.17;;
19842;SDS011;10082;51.038;6.992;2023-12-29T06:19:30;6.40;;;1.33;;
19842;SDS011;10082;51.038;6.992;2023-12-29T06:21:58;4.75;;;1.42;;
19842;SDS011;10082;51.038;6.992;2023-12-29T06:24:26;3.72;;;1.20;;
19842;SDS011;10082;51.038;6.992;2023-12-29T06:26:53;4.05;;;1.35;;
19842;SDS011;10082;51.038;6.992;2023-12-29T06:29:20;6.82;;;1.40;;
19842;SDS011;10082;51.038;6.992;2023-12-29T06:31:47;2.30;;;1.40;;
19842;SDS011;10082;51.038;6.992;2023-12-29T06:34:15;3.50;;;1.27;;
19842;SDS011;10082;51.038;6.992;2023-12-29T06:36:42;3.45;;;1.10;;
19842;SDS011;10082;51.038;6.992;2023-12-29T06:39:09;4.63;;;1.23;;
19842;SDS011;10082;51.038;6.992;2023-12-29T06:41:38;3.03;;;1.15;;
19842;SDS011;10082;51.038;6.992;2023-12-29T06:44:05;2.92;;;1.10;;
19842;SDS011;10082;51.038;6.992;2023-12-29T06:46:32;2.63;;;1.13;;
19842;SDS011;10082;51.038;6.992;2023-12-29T06:48:59;3.03;;;0.93;;
19842;SDS011;10082;51.038;6.992;2023-12-29T06:51:26;4.88;;;1.40;;
19842;SDS011;10082;51.038;6.992;2023-12-29T06:53:53;4.82;;;1.30;;
19842;SDS011;10082;51.038;6.992;2023-12-29T06:56:21;3.53;;;1.30;;
19842;SDS011;10082;51.038;6.992;2023-12-29T06:58:49;5.03;;;1.08;;
19842;SDS011;10082;51.038;6.992;2023-12-29T07:01:16;2.50;;;0.95;;
19842;SDS011;10082;51.038;6.992;2023-12-29T07:03:43;2.65;;;1.02;;
19842;SDS011;10082;51.038;6.992;2023-12-29T07:06:10;3.53;;;1.30;;
19842;SDS011;10082;51.038;6.992;2023-12-29T07:08:37;4.07;;;1.20;;
19842;SDS011;10082;51.038;6.992;2023-12-29T07:11:08;2.13;;;1.00;;
19842;SDS011;10082;51.038;6.992;2023-12-29T07:13:36;3.83;;;1.23;;
19842;SDS011;10082;51.038;6.992;2023-12-29T07:16:04;3.88;;;1.30;;
19842;SDS011;10082;51.038;6.992;2023-12-29T07:18:35;3.85;;;1.30;;
19842;SDS011;10082;51.038;6.992;2023-12-29T07:21:02;2.53;;;1.13;;
19842;SDS011;10082;51.038;6.992;2023-12-29T07:23:30;2.63;;;1.05;;
19842;SDS011;10082;51.038;6.992;2023-12-29T07:25:57;3.95;;;1.85;;
19842;SDS011;10082;51.038;6.992;2023-12-29T07:28:24;3.67;;;1.25;;
19842;SDS011;10082;51.038;6.992;2023-12-29T07:30:51;2.80;;;1.30;;
19842;SDS011;10082;51.038;6.992;2023-12-29T07:33:19;4.05;;;1.45;;
19842;SDS011;10082;51.038;6.992;2023-12-29T07:35:46;3.83;;;1.25;;
19842;SDS011;10082;51.038;6.992;2023-12-29T07:38:14;4.15;;;1.45;;
19842;SDS011;10082;51.038;6.992;2023-12-29T07:40:41;4.72;;;1.42;;
19842;SDS011;10082;51.038;6.992;2023-12-29T07:43:08;5.22;;;1.70;;
19842;SDS011;10082;51.038;6.992;2023-12-29T07:45:34;2.92;;;1.20;;
19842;SDS011;10082;51.038;6.992;2023-12-29T07:48:02;5.70;;;1.42;;
19842;SDS011;10082;51.038;6.992;2023-12-29T07:50:31;3.97;;;1.48;;
19842;SDS011;10082;51.038;6.992;2023-12-29T07:52:58;3.63;;;1.75;;
19842;SDS011;10082;51.038;6.992;2023-12-29T07:55:28;2.70;;;1.30;;
19842;SDS011;10082;51.038;6.992;2023-12-29T07:57:55;3.22;;;1.10;;
19842;SDS011;10082;51.038;6.992;2023-12-29T08:00:22;2.30;;;1.00;;
19842;SDS011;10082;51.038;6.992;2023-12-29T08:02:49;2.72;;;1.20;;
19842;SDS011;10082;51.038;6.992;2023-12-29T08:05:16;8.02;;;1.55;;
19842;SDS011;10082;51.038;6.992;2023-12-29T08:07:46;3.63;;;1.10;;
19842;SDS011;10082;51.038;6.992;2023-12-29T08:10:12;3.30;;;1.13;;
19842;SDS011;10082;51.038;6.992;2023-12-29T08:12:39;4.93;;;1.10;;
19842;SDS011;10082;51.038;6.992;2023-12-29T08:15:06;5.30;;;1.60;;
19842;SDS011;10082;51.038;6.992;2023-12-29T08:17:34;3.28;;;1.60;;
19842;SDS011;10082;51.038;6.992;2023-12-29T08:20:01;4.05;;;1.08;;
19842;SDS011;10082;51.038;6.992;2023-12-29T08:22:29;4.88;;;1.50;;
19842;SDS011;10082;51.038;6.992;2023-12-29T08:24:59;2.83;;;1.00;;
19842;SDS011;10082;51.038;6.992;2023-12-29T08:27:26;2.63;;;1.10;;
19842;SDS011;10082;51.038;6.992;2023-12-29T08:29:53;6.88;;;1.38;;
19842;SDS011;10082;51.038;6.992;2023-12-29T08:32:20;5.47;;;1.85;;
19842;SDS011;10082;51.038;6.992;2023-12-29T08:34:47;3.28;;;1.60;;
19842;SDS011;10082;51.038;6.992;2023-12-29T08:37:14;5.30;;;1.58;;
19842;SDS011;10082;51.038;6.992;2023-12-29T08:39:45;3.83;;;1.33;;
19842;SDS011;10082;51.038;6.992;2023-12-29T08:42:13;4.28;;;1.35;;
19842;SDS011;10082;51.038;6.992;2023-12-29T08:44:41;3.45;;;1.40;;
19842;SDS011;10082;51.038;6.992;2023-12-29T08:47:09;4.63;;;1.40;;
19842;SDS011;10082;51.038;6.992;2023-12-29T08:49:36;4.38;;;1.60;;
19842;SDS011;10082;51.038;6.992;2023-12-29T08:52:03;4.78;;;1.27;;
19842;SDS011;10082;51.038;6.992;2023-12-29T08:54:30;4.05;;;1.38;;
19842;SDS011;10082;51.038;6.992;2023-12-29T08:56:57;5.95;;;1.95;;
19842;SDS011;10082;51.038;6.992;2023-12-29T08:59:29;3.70;;;1.42;;
19842;SDS011;10082;51.038;6.992;2023-12-29T09:01:56;9.13;;;1.75;;
19842;SDS011;10082;51.038;6.992;2023-12-29T09:04:22;6.28;;;1.88;;
19842;SDS011;10082;51.038;6.992;2023-12-29T09:06:51;7.22;;;1.88;;
19842;SDS011;10082;51.038;6.992;2023-12-29T09:09:18;7.07;;;1.65;;
19842;SDS011;10082;51.038;6.992;2023-12-29T09:11:44;5.55;;;1.75;;
19842;SDS011;10082;51.038;6.992;2023-12-29T09:14:12;5.28;;;1.55;;
19842;SDS011;10082;51.038;6.992;2023-12-29T09:16:41;5.88;;;1.80;;
19842;SDS011;10082;51.038;6.992;2023-12-29T09:19:11;5.20;;;1.30;;
19842;SDS011;10082;51.038;6.992;2023-12-29T09:21:38;4.55;;;1.20;;
19842;SDS011;10082;51.038;6.992;2023-12-29T09:24:06;2.78;;;1.25;;
19842;SDS011;10082;51.038;6.992;2023-12-29T09:26:33;3.63;;;1.48;;
19842;SDS011;10082;51.038;6.992;2023-12-29T09:29:01;5.15;;;1.60;;
19842;SDS011;10082;51.038;6.992;2023-12-29T09:31:28;4.93;;;1.50;;
19842;SDS011;10082;51.038;6.992;2023-12-29T09:33:56;5.43;;;1.88;;
19842;SDS011;10082;51.038;6.992;2023-12-29T09:36:23;6.07;;;2.17;;
19842;SDS011;10082;51.038;6.992;2023-12-29T09:38:50;6.00;;;2.22;;
19842;SDS011;10082;51.038;6.992;2023-12-29T09:41:17;2.95;;;1.05;;
19842;SDS011;10082;51.038;6.992;2023-12-29T09:43:46;2.88;;;1.48;;
19842;SDS011;10082;51.038;6.992;2023-12-29T09:46:15;4.63;;;1.55;;
19842;SDS011;10082;51.038;6.992;2023-12-29T09:48:43;6.68;;;2.00;;
19842;SDS011;10082;51.038;6.992;2023-12-29T09:51:14;5.43;;;1.58;;
19842;SDS011;10082;51.038;6.992;2023-12-29T09:53:42;6.00;;;1.80;;
19842;SDS011;10082;51.038;6.992;2023-12-29T09:56:09;4.95;;;1.58;;
19842;SDS011;10082;51.038;6.992;2023-12-29T09:58:37;3.63;;;1.60;;
19842;SDS011;10082;51.038;6.992;2023-12-29T10:01:04;3.97;;;1.60;;
19842;SDS011;10082;51.038;6.992;2023-12-29T10:03:33;3.88;;;1.58;;
19842;SDS011;10082;51.038;6.992;2023-12-29T10:06:00;3.03;;;1.45;;
19842;SDS011;10082;51.038;6.992;2023-12-29T10:08:31;4.20;;;1.63;;
19842;SDS011;10082;51.038;6.992;2023-12-29T10:11:00;2.78;;;1.30;;
19842;SDS011;10082;51.038;6.992;2023-12-29T10:13:30;2.97;;;0.90;;
19842;SDS011;10082;51.038;6.992;2023-12-29T10:16:03;3.70;;;1.27;;
19842;SDS011;10082;51.038;6.992;2023-12-29T10:18:37;1.55;;;1.02;;
19842;SDS011;10082;51.038;6.992;2023-12-29T10:21:12;2.30;;;1.27;;
19842;SDS011;10082;51.038;6.992;2023-12-29T10:23:52;2.60;;;1.00;;
19842;SDS011;10082;51.038;6.992;2023-12-29T10:26:24;1.65;;;0.80;;
19842;SDS011;10082;51.038;6.992;2023-12-29T10:28:52;1.70;;;0.77;;
19842;SDS011;10082;51.038;6.992;2023-12-29T10:31:19;4.55;;;0.95;;
19842;SDS011;10082;51.038;6.992;2023-12-29T10:33:46;1.73;;;0.70;;
19842;SDS011;10082;51.038;6.992;2023-12-29T10:36:15;2.53;;;0.60;;
19842;SDS011;10082;51.038;6.992;2023-12-29T10:38:42;1.65;;;0.70;;
19842;SDS011;10082;51.038;6.992;2023-12-29T10:41:11;1.02;;;0.70;;
19842;SDS011;10082;51.038;6.992;2023-12-29T10:43:41;2.90;;;1.13;;
19842;SDS011;10082;51.038;6.992;2023-12-29T10:46:10;1.70;;;0.85;;
19842;SDS011;10082;51.038;6.992;2023-12-29T10:48:38;1.17;;;0.73;;
19842;SDS011;10082;51.038;6.992;2023-12-29T10:51:05;0.60;;;0.57;;
19842;SDS011;10082;51.038;6.992;2023-12-29T10:53:32;1.23;;;0.50;;
19842;SDS011;10082;51.038;6.992;2023-12-29T10:56:09;1.30;;;0.80;;
19842;SDS011;10082;51.038;6.992;2023-12-29T10:58:47;3.55;;;0.98;;
19842;SDS011;10082;51.038;6.992;2023-12-29T11:01:24;0.85;;;0.60;;
19842;SDS011;10082;51.038;6.992;2023-12-29T11:03:57;1.25;;;0.93;;
19842;SDS011;10082;51.038;6.992;2023-12-29T11:08:52;1.15;;;0.60;;
19842;SDS011;10082;51.038;6.992;2023-12-29T11:11:21;1.67;;;0.70;;
19842;SDS011;10082;51.038;6.992;2023-12-29T11:13:48;1.85;;;0.82;;
19842;SDS011;10082;51.038;6.992;2023-12-29T11:16:16;1.48;;;0.73;;
19842;SDS011;10082;51.038;6.992;2023-12-29T11:18:46;1.27;;;0.70;;
19842;SDS011;10082;51.038;6.992;2023-12-29T11:21:16;0.93;;;0.60;;
19842;SDS011;10082;51.038;6.992;2023-12-29T11:23:44;1.10;;;0.50;;
19842;SDS011;10082;51.038;6.992;2023-12-29T11:26:11;1.02;;;0.90;;
19842;SDS011;10082;51.038;6.992;2023-12-29T11:28:40;0.57;;;0.52;;
19842;SDS011;10082;51.038;6.992;2023-12-29T11:31:08;1.20;;;0.60;;
19842;SDS011;10082;51.038;6.992;2023-12-29T11:33:37;1.85;;;0.93;;
19842;SDS011;10082;51.038;6.992;2023-12-29T11:36:09;1.95;;;0.82;;
19842;SDS011;10082;51.038;6.992;2023-12-29T11:38:45;1.70;;;0.60;;
19842;SDS011;10082;51.038;6.992;2023-12-29T11:41:21;1.30;;;0.60;;
19842;SDS011;10082;51.038;6.992;2023-12-29T11:44:00;1.40;;;0.75;;
19842;SDS011;10082;51.038;6.992;2023-12-29T11:46:34;1.38;;;0.60;;
19842;SDS011;10082;51.038;6.992;2023-12-29T11:49:01;1.20;;;0.85;;
19842;SDS011;10082;51.038;6.992;2023-12-29T11:51:30;1.45;;;0.80;;
19842;SDS011;10082;51.038;6.992;2023-12-29T11:53:58;1.67;;;0.73;;
19842;SDS011;10082;51.038;6.992;2023-12-29T11:56:33;0.70;;;0.60;;
19842;SDS011;10082;51.038;6.992;2023-12-29T11:59:16;1.00;;;0.60;;
19842;SDS011;10082;51.038;6.992;2023-12-29T12:01:46;2.22;;;1.00;;
19842;SDS011;10082;51.038;6.992;2023-12-29T12:07:02;1.73;;;1.00;;
19842;SDS011;10082;51.038;6.992;2023-12-29T12:09:29;4.40;;;1.05;;
19842;SDS011;10082;51.038;6.992;2023-12-29T12:11:56;2.85;;;0.80;;
19842;SDS011;10082;51.038;6.992;2023-12-29T12:14:45;1.27;;;0.70;;
19842;SDS011;10082;51.038;6.992;2023-12-29T12:17:30;2.67;;;0.80;;
19842;SDS011;10082;51.038;6.992;2023-12-29T12:19:58;0.77;;;0.50;;
19842;SDS011;10082;51.038;6.992;2023-12-29T12:22:28;1.90;;;0.88;;
19842;SDS011;10082;51.038;6.992;2023-12-29T12:24:57;1.02;;;0.93;;
19842;SDS011;10082;51.038;6.992;2023-12-29T12:27:24;1.58;;;1.10;;
19842;SDS011;10082;51.038;6.992;2023-12-29T12:29:54;2.55;;;0.80;;
19842;SDS011;10082;51.038;6.992;2023-12-29T12:32:24;0.88;;;0.70;;
19842;SDS011;10082;51.038;6.992;2023-12-29T12:34:51;2.28;;;0.80;;
19842;SDS011;10082;51.038;6.992;2023-12-29T12:37:18;1.67;;;1.20;;
19842;SDS011;10082;51.038;6.992;2023-12-29T12:39:46;0.93;;;0.63;;
19842;SDS011;10082;51.038;6.992;2023-12-29T12:42:13;1.20;;;0.80;;
19842;SDS011;10082;51.038;6.992;2023-12-29T12:44:41;1.90;;;0.60;;
19842;SDS011;10082;51.038;6.992;2023-12-29T12:47:18;0.73;;;0.50;;
19842;SDS011;10082;51.038;6.992;2023-12-29T12:49:50;2.03;;;0.93;;
19842;SDS011;10082;51.038;6.992;2023-12-29T12:52:17;1.05;;;0.50;;
19842;SDS011;10082;51.038;6.992;2023-12-29T12:54:45;0.50;;;0.50;;
19842;SDS011;10082;51.038;6.992;2023-12-29T12:57:13;1.20;;;0.60;;
19842;SDS011;10082;51.038;6.992;2023-12-29T12:59:51;1.88;;;0.45;;
19842;SDS011;10082;51.038;6.992;2023-12-29T13:02:21;1.20;;;0.70;;
19842;SDS011;10082;51.038;6.992;2023-12-29T13:04:49;0.60;;;0.50;;
19842;SDS011;10082;51.038;6.992;2023-12-29T13:07:18;0.68;;;0.47;;
19842;SDS011;10082;51.038;6.992;2023-12-29T13:09:45;1.38;;;0.45;;
19842;SDS011;10082;51.038;6.992;2023-12-29T13:12:15;1.02;;;0.50;;
19842;SDS011;10082;51.038;6.992;2023-12-29T13:14:43;1.27;;;0.40;;
19842;SDS011;10082;51.038;6.992;2023-12-29T13:17:11;0.93;;;0.80;;
19842;SDS011;10082;51.038;6.992;2023-12-29T13:19:42;0.65;;;0.50;;
19842;SDS011;10082;51.038;6.992;2023-12-29T13:22:15;1.75;;;0.70;;
19842;SDS011;10082;51.038;6.992;2023-12-29T13:24:43;0.40;;;0.32;;
19842;SDS011;10082;51.038;6.992;2023-12-29T13:27:11;1.13;;;0.60;;
19842;SDS011;10082;51.038;6.992;2023-12-29T13:29:39;0.60;;;0.52;;
19842;SDS011;10082;51.038;6.992;2023-12-29T13:32:07;0.75;;;0.40;;
19842;SDS011;10082;51.038;6.992;2023-12-29T13:34:46;0.50;;;0.40;;
19842;SDS011;10082;51.038;6.992;2023-12-29T13:37:18;1.35;;;0.68;;
19842;SDS011;10082;51.038;6.992;2023-12-29T13:39:52;1.15;;;0.50;;
19842;SDS011;10082;51.038;6.992;2023-12-29T13:42:28;0.85;;;0.47;;
19842;SDS011;10082;51.038;6.992;2023-12-29T13:44:58;1.02;;;0.60;;
19842;SDS011;10082;51.038;6.992;2023-12-29T13:47:27;1.73;;;0.52;;
19842;SDS011;10082;51.038;6.992;2023-12-29T13:49:56;0.63;;;0.50;;
19842;SDS011;10082;51.038;6.992;2023-12-29T13:52:22;0.98;;;0.60;;
19842;SDS011;10082;51.038;6.992;2023-12-29T13:54:50;1.20;;;0.65;;
19842;SDS011;10082;51.038;6.992;2023-12-29T13:57:17;1.38;;;0.50;;
19842;SDS011;10082;51.038;6.992;2023-12-29T13:59:44;1.13;;;0.60;;
19842;SDS011;10082;51.038;6.992;2023-12-29T14:02:23;1.77;;;0.55;;
19842;SDS011;10082;51.038;6.992;2023-12-29T14:05:12;2.65;;;2.45;;
19842;SDS011;10082;51.038;6.992;2023-12-29T14:07:43;1.13;;;0.40;;
19842;SDS011;10082;51.038;6.992;2023-12-29T14:10:14;0.98;;;0.47;;
19842;SDS011;10082;51.038;6.992;2023-12-29T14:12:41;0.82;;;0.60;;
19842;SDS011;10082;51.038;6.992;2023-12-29T14:15:08;1.45;;;0.50;;
19842;SDS011;10082;51.038;6.992;2023-12-29T14:17:35;0.88;;;0.50;;
19842;SDS011;10082;51.038;6.992;2023-12-29T14:20:03;1.95;;;0.43;;
19842;SDS011;10082;51.038;6.992;2023-12-29T14:22:34;0.65;;;0.50;;
19842;SDS011;10082;51.038;6.992;2023-12-29T14:25:02;0.45;;;0.43;;
19842;SDS011;10082;51.038;6.992;2023-12-29T14:27:30;0.55;;;0.55;;
19842;SDS011;10082;51.038;6.992;2023-12-29T14:29:57;0.65;;;0.30;;
19842;SDS011;10082;51.038;6.992;2023-12-29T14:32:24;0.73;;;0.40;;
19842;SDS011;10082;51.038;6.992;2023-12-29T14:34:54;1.10;;;0.60;;
19842;SDS011;10082;51.038;6.992;2023-12-29T14:37:21;0.73;;;0.55;;
19842;SDS011;10082;51.038;6.992;2023-12-29T14:39:50;1.48;;;0.50;;
19842;SDS011;10082;51.038;6.992;2023-12-29T14:42:17;1.48;;;0.70;;
19842;SDS011;10082;51.038;6.992;2023-12-29T14:44:48;0.82;;;0.63;;
19842;SDS011;10082;51.038;6.992;2023-12-29T14:47:15;1.60;;;1.23;;
19842;SDS011;10082;51.038;6.992;2023-12-29T14:49:43;1.38;;;0.38;;
19842;SDS011;10082;51.038;6.992;2023-12-29T14:52:10;0.73;;;0.50;;
19842;SDS011;10082;51.038;6.992;2023-12-29T14:54:38;1.58;;;0.60;;
19842;SDS011;10082;51.038;6.992;2023-12-29T14:57:07;0.98;;;0.50;;
19842;SDS011;10082;51.038;6.992;2023-12-29T14:59:34;0.52;;;0.50;;
19842;SDS011;10082;51.038;6.992;2023-12-29T15:02:02;0.85;;;0.60;;
19842;SDS011;10082;51.038;6.992;2023-12-29T15:04:32;0.98;;;0.70;;